XMN weather

Xiamen Gaoqi International Airport
Xiamen, Fujian Province, China

Public forecast

Using degrees Celsius for public forecast. Weather courtesy of forecast.io.

Current aviation weather report (METAR) for Xiamen Gaoqi International Airport

Retrieved 2019/10/21 07:00 UTC (18 minutes ago):

ZSAM 210700Z 10003MPS 050V170 CAVOK 27/13 Q1013 NOSIG

Aviation forecast (TAF) for Xiamen Gaoqi International Airport

Retrieved 2019/10/21 06:00 UTC (1 hour ago):

TAF ZSAM 210308Z 2106/2206 10006G12MPS 8000 FEW040 TX29/2106Z TN19/2121Z BECMG 2111/2112 04004MPS